Time;durP1;ratioP1;P1;durP2;ratioP2;P2;SDS_P1;SDS_P2;PMS_P1;PMS_P2;Temp;Humidity;BMP_temperature;BMP_pressure;BME280_temperature;BME280_humidity;BME280_pressure;Samples;Min_cycle;Max_cycle;Signal;HPM_P1;HPM_P2
2022/07/10 00:01:01;;;;;;;5.66;2.12;;;;;;;;;;366210;146;858167;-65
2022/07/10 00:02:03;;;;;;;4.77;2.15;;;;;;;;;;366138;146;861992;-63
2022/07/10 00:03:05;;;;;;;5.43;1.86;;;;;;;;;;366128;147;858428;-63
2022/07/10 00:04:07;;;;;;;5.66;1.90;;;;;;;;;;365004;146;858964;-67
2022/07/10 00:05:10;;;;;;;6.25;1.99;;;;;;;;;;364754;147;865109;-70
2022/07/10 00:06:12;;;;;;;3.49;1.84;;;;;;;;;;364726;147;857274;-69
2022/07/10 00:07:14;;;;;;;3.61;1.84;;;;;;;;;;364715;147;857779;-71
2022/07/10 00:08:16;;;;;;;4.89;1.98;;;;;;;;;;364646;147;859027;-65
2022/07/10 00:09:18;;;;;;;4.20;2.09;;;;;;;;;;357075;149;857732;-65
2022/07/10 00:10:20;;;;;;;6.24;2.17;;;;;;;;;;357541;147;857474;-65
2022/07/10 00:11:22;;;;;;;5.84;2.14;;;;;;;;;;357582;150;858578;-64
2022/07/10 00:12:24;;;;;;;2.67;1.86;;;;;;;;;;351178;150;865787;-65
2022/07/10 00:13:25;;;;;;;3.47;1.66;;;;;;;;;;351053;150;864518;-65
2022/07/10 00:14:28;;;;;;;4.55;2.33;;;;;;;;;;355847;150;866781;-64
2022/07/10 00:15:32;;;;;;;3.03;2.05;;;;;;;;;;355934;150;858289;-66
2022/07/10 00:16:34;;;;;;;3.84;1.75;;;;;;;;;;350289;150;857409;-65
2022/07/10 00:17:38;;;;;;;6.41;1.82;;;;;;;;;;349603;150;864777;-65
2022/07/10 00:18:40;;;;;;;3.74;1.82;;;;;;;;;;356987;147;858007;-65
2022/07/10 00:19:42;;;;;;;5.77;1.92;;;;;;;;;;363824;147;865205;-66
2022/07/10 00:20:44;;;;;;;5.73;1.93;;;;;;;;;;356764;147;858718;-66
2022/07/10 00:21:45;;;;;;;4.10;1.91;;;;;;;;;;356044;150;858687;-66
2022/07/10 00:22:49;;;;;;;8.54;2.43;;;;;;;;;;355913;151;864956;-67
2022/07/10 00:23:51;;;;;;;3.60;2.09;;;;;;;;;;355893;151;858527;-66
2022/07/10 00:24:53;;;;;;;6.02;2.55;;;;;;;;;;356004;151;857824;-65
2022/07/10 00:25:54;;;;;;;5.66;2.75;;;;;;;;;;355986;151;865735;-66
2022/07/10 00:26:57;;;;;;;7.97;3.17;;;;;;;;;;356091;150;856572;-65
2022/07/10 00:27:59;;;;;;;8.67;3.28;;;;;;;;;;355989;150;857267;-65
2022/07/10 00:29:01;;;;;;;6.63;2.93;;;;;;;;;;356059;151;858574;-64
2022/07/10 00:30:03;;;;;;;7.46;3.42;;;;;;;;;;356005;151;857314;-65
2022/07/10 00:31:05;;;;;;;6.78;2.99;;;;;;;;;;356066;151;857262;-65
2022/07/10 00:32:07;;;;;;;5.76;2.60;;;;;;;;;;356010;151;858236;-66
2022/07/10 00:33:09;;;;;;;6.71;2.86;;;;;;;;;;356456;147;859222;-65
2022/07/10 00:34:11;;;;;;;5.12;2.71;;;;;;;;;;355979;150;859810;-65
2022/07/10 00:35:13;;;;;;;10.89;3.37;;;;;;;;;;355734;151;866626;-66
2022/07/10 00:36:16;;;;;;;5.55;2.61;;;;;;;;;;355942;151;857286;-65
2022/07/10 00:37:18;;;;;;;4.67;2.71;;;;;;;;;;355998;151;857235;-71
2022/07/10 00:38:19;;;;;;;5.44;2.39;;;;;;;;;;359202;147;857380;-69
2022/07/10 00:39:23;;;;;;;7.12;2.75;;;;;;;;;;364721;147;865711;-69
2022/07/10 00:40:26;;;;;;;7.75;2.39;;;;;;;;;;364796;147;858833;-69
2022/07/10 00:41:29;;;;;;;7.86;2.87;;;;;;;;;;364631;147;857300;-70
2022/07/10 00:42:31;;;;;;;6.52;2.61;;;;;;;;;;364680;147;857983;-67
2022/07/10 00:43:51;;;;;;;6.29;2.59;;;;;;;;;;362089;147;865006;-66
2022/07/10 00:44:52;;;;;;;;;;;;;;;;;;358776;150;865393;-64
2022/07/10 00:45:54;;;;;;;3.94;2.08;;;;;;;;;;356082;150;859074;-67
2022/07/10 00:46:56;;;;;;;6.05;2.81;;;;;;;;;;356148;151;857224;-68
2022/07/10 00:47:58;;;;;;;3.18;2.33;;;;;;;;;;356209;151;858216;-70
2022/07/10 00:49:01;;;;;;;5.35;2.39;;;;;;;;;;356247;151;857182;-70
2022/07/10 00:50:03;;;;;;;5.25;2.23;;;;;;;;;;356122;151;865188;-70
2022/07/10 00:51:05;;;;;;;3.41;2.12;;;;;;;;;;356223;150;859391;-66
2022/07/10 00:52:07;;;;;;;4.17;2.11;;;;;;;;;;355953;150;859114;-66
2022/07/10 00:53:09;;;;;;;3.83;2.37;;;;;;;;;;356031;150;857283;-65
2022/07/10 00:54:11;;;;;;;4.61;2.23;;;;;;;;;;356028;150;858192;-64
2022/07/10 00:55:13;;;;;;;6.63;2.30;;;;;;;;;;356074;151;857350;-63
2022/07/10 00:56:18;;;;;;;3.65;2.41;;;;;;;;;;356996;147;864766;-65
2022/07/10 00:57:21;;;;;;;5.69;2.44;;;;;;;;;;355911;150;864793;-64
2022/07/10 00:58:23;;;;;;;4.32;2.23;;;;;;;;;;355893;150;858492;-66
2022/07/10 00:59:25;;;;;;;4.34;2.06;;;;;;;;;;356078;150;857818;-67
2022/07/10 01:00:29;;;;;;;4.81;2.35;;;;;;;;;;355551;150;864784;-66
2022/07/10 01:01:32;;;;;;;4.37;2.45;;;;;;;;;;355999;150;858901;-66
2022/07/10 01:02:34;;;;;;;3.31;2.14;;;;;;;;;;357632;147;859576;-66
2022/07/10 01:03:36;;;;;;;3.90;2.22;;;;;;;;;;356030;150;858822;-66
2022/07/10 01:04:38;;;;;;;5.08;2.38;;;;;;;;;;356930;149;857370;-66
2022/07/10 01:05:40;;;;;;;7.93;2.62;;;;;;;;;;358133;148;857993;-65
2022/07/10 01:06:42;;;;;;;4.16;2.45;;;;;;;;;;358114;148;857779;-66
2022/07/10 01:07:44;;;;;;;4.98;2.19;;;;;;;;;;358235;148;857526;-67
2022/07/10 01:08:45;;;;;;;4.37;2.03;;;;;;;;;;359643;147;864987;-64
2022/07/10 01:09:47;;;;;;;6.79;2.15;;;;;;;;;;366352;146;858017;-65
2022/07/10 01:10:50;;;;;;;3.61;2.21;;;;;;;;;;366293;146;857224;-66
2022/07/10 01:11:52;;;;;;;5.03;2.25;;;;;;;;;;366278;146;858314;-67
2022/07/10 01:12:53;;;;;;;3.81;2.20;;;;;;;;;;366336;147;858843;-67
2022/07/10 01:13:55;;;;;;;4.70;2.37;;;;;;;;;;366268;147;858976;-67
2022/07/10 01:14:57;;;;;;;3.59;2.09;;;;;;;;;;366258;147;865227;-67
2022/07/10 01:15:59;;;;;;;5.23;2.23;;;;;;;;;;360028;149;865446;-67
2022/07/10 01:17:01;;;;;;;4.09;2.49;;;;;;;;;;360284;147;857053;-67
2022/07/10 01:18:03;;;;;;;5.07;2.43;;;;;;;;;;366314;147;857429;-67
2022/07/10 01:19:06;;;;;;;4.72;2.46;;;;;;;;;;366307;146;858152;-67
2022/07/10 01:20:09;;;;;;;4.81;2.05;;;;;;;;;;366180;146;864787;-71
2022/07/10 01:21:30;;;;;;;4.82;2.30;;;;;;;;;;366425;146;857183;-71
2022/07/10 01:22:32;;;;;;;5.43;2.13;;;;;;;;;;366070;147;858129;-67
2022/07/10 01:23:34;;;;;;;3.18;2.01;;;;;;;;;;366299;146;857201;-67
2022/07/10 01:24:36;;;;;;;4.39;2.46;;;;;;;;;;366304;147;857270;-67
2022/07/10 01:25:38;;;;;;;4.73;2.15;;;;;;;;;;366207;147;857216;-66
2022/07/10 01:26:42;;;;;;;6.57;2.32;;;;;;;;;;360023;149;858535;-65
2022/07/10 01:27:44;;;;;;;4.11;2.44;;;;;;;;;;360272;147;857659;-66
2022/07/10 01:28:47;;;;;;;6.84;2.65;;;;;;;;;;366242;147;858782;-65
2022/07/10 01:29:49;;;;;;;3.54;2.35;;;;;;;;;;366212;147;865755;-65
2022/07/10 01:30:51;;;;;;;5.22;2.53;;;;;;;;;;366378;146;858660;-66
2022/07/10 01:31:53;;;;;;;4.77;2.83;;;;;;;;;;360214;149;858162;-71
2022/07/10 01:32:55;;;;;;;7.50;2.39;;;;;;;;;;360407;147;858087;-70
2022/07/10 01:33:56;;;;;;;5.45;2.51;;;;;;;;;;366312;146;866144;-69
2022/07/10 01:34:58;;;;;;;4.92;2.37;;;;;;;;;;366280;147;865186;-65
2022/07/10 01:36:00;;;;;;;5.79;2.60;;;;;;;;;;366193;147;857213;-67
2022/07/10 01:37:02;;;;;;;4.51;2.29;;;;;;;;;;358265;146;864696;-66
2022/07/10 01:38:06;;;;;;;5.27;2.41;;;;;;;;;;358153;149;856983;-66
2022/07/10 01:39:10;;;;;;;4.26;2.43;;;;;;;;;;357947;150;857208;-66
2022/07/10 01:40:13;;;;;;;6.81;2.57;;;;;;;;;;357505;148;858643;-66
2022/07/10 01:41:16;;;;;;;5.05;2.80;;;;;;;;;;359382;147;858232;-65
2022/07/10 01:42:17;;;;;;;4.23;2.45;;;;;;;;;;358180;150;857374;-66
2022/07/10 01:43:19;;;;;;;4.45;2.55;;;;;;;;;;357308;149;864913;-65
2022/07/10 01:44:21;;;;;;;5.27;2.59;;;;;;;;;;357245;149;857361;-68
2022/07/10 01:45:23;;;;;;;4.31;2.76;;;;;;;;;;358202;150;858428;-68
2022/07/10 01:46:25;;;;;;;5.42;2.49;;;;;;;;;;358056;148;864981;-66
2022/07/10 01:47:27;;;;;;;4.57;2.48;;;;;;;;;;358085;148;864643;-67
2022/07/10 01:48:31;;;;;;;4.00;2.37;;;;;;;;;;358114;148;862411;-66
2022/07/10 01:49:34;;;;;;;6.21;2.47;;;;;;;;;;358083;148;858262;-67
2022/07/10 01:50:36;;;;;;;4.33;2.16;;;;;;;;;;352058;153;857288;-67
2022/07/10 01:51:37;;;;;;;4.59;2.77;;;;;;;;;;349453;151;856985;-66
2022/07/10 01:52:40;;;;;;;10.46;2.73;;;;;;;;;;354864;150;857065;-65
2022/07/10 01:53:41;;;;;;;4.83;2.27;;;;;;;;;;354894;150;865230;-64
2022/07/10 01:54:43;;;;;;;4.55;2.33;;;;;;;;;;354971;150;859765;-65
2022/07/10 01:55:45;;;;;;;5.85;2.26;;;;;;;;;;354942;150;859606;-67
2022/07/10 01:56:48;;;;;;;5.31;2.23;;;;;;;;;;356939;148;858144;-64
2022/07/10 01:57:49;;;;;;;5.59;2.75;;;;;;;;;;356529;151;859662;-64
2022/07/10 01:58:51;;;;;;;3.44;2.20;;;;;;;;;;356544;151;858117;-66
2022/07/10 01:59:53;;;;;;;6.57;2.17;;;;;;;;;;356449;151;857052;-62
2022/07/10 02:00:56;;;;;;;6.99;2.29;;;;;;;;;;356398;150;857887;-65
2022/07/10 02:01:58;;;;;;;5.10;2.35;;;;;;;;;;346613;153;857322;-65
2022/07/10 02:05:41;;;;;;;5.14;2.07;;;;;;;;;;348923;150;858915;-63
2022/07/10 02:06:43;;;;;;;3.81;2.01;;;;;;;;;;356094;148;858873;-65
2022/07/10 02:07:45;;;;;;;4.26;2.06;;;;;;;;;;363306;148;858363;-63
2022/07/10 02:08:47;;;;;;;6.15;2.05;;;;;;;;;;363221;148;858470;-66
2022/07/10 02:09:48;;;;;;;4.16;2.24;;;;;;;;;;363314;148;857548;-65
2022/07/10 02:10:50;;;;;;;5.29;2.15;;;;;;;;;;363231;148;859619;-65
2022/07/10 02:11:52;;;;;;;5.90;2.20;;;;;;;;;;363312;148;866816;-65
2022/07/10 02:12:53;;;;;;;4.66;2.13;;;;;;;;;;363302;148;864697;-64
2022/07/10 02:13:55;;;;;;;6.24;2.61;;;;;;;;;;361834;148;857784;-65
2022/07/10 02:14:59;;;;;;;3.99;2.43;;;;;;;;;;363302;148;857744;-65
2022/07/10 02:16:00;;;;;;;5.11;2.16;;;;;;;;;;363142;148;866311;-65
2022/07/10 02:17:02;;;;;;;4.04;2.38;;;;;;;;;;363225;148;859312;-63
2022/07/10 02:18:04;;;;;;;4.15;2.15;;;;;;;;;;363508;148;857217;-63
2022/07/10 02:19:07;;;;;;;3.64;2.07;;;;;;;;;;363329;148;858985;-65
2022/07/10 02:20:10;;;;;;;5.02;2.49;;;;;;;;;;361495;148;857584;-66
2022/07/10 02:21:12;;;;;;;4.35;2.55;;;;;;;;;;363420;148;858435;-66
2022/07/10 02:22:14;;;;;;;6.55;2.64;;;;;;;;;;363488;148;864472;-69
2022/07/10 02:23:16;;;;;;;4.87;2.37;;;;;;;;;;363636;148;862203;-71
2022/07/10 02:24:18;;;;;;;6.11;2.28;;;;;;;;;;363791;148;858148;-69
2022/07/10 02:25:20;;;;;;;4.26;2.69;;;;;;;;;;363722;148;864806;-70
2022/07/10 02:26:23;;;;;;;5.86;2.61;;;;;;;;;;363440;147;858650;-66
2022/07/10 02:27:25;;;;;;;5.55;2.38;;;;;;;;;;363469;148;857027;-67
2022/07/10 02:28:27;;;;;;;5.20;2.21;;;;;;;;;;363315;148;867398;-66
2022/07/10 02:29:29;;;;;;;6.58;2.61;;;;;;;;;;363488;148;864646;-67
2022/07/10 02:30:31;;;;;;;5.33;2.40;;;;;;;;;;363472;148;857703;-65
2022/07/10 02:31:34;;;;;;;6.09;2.22;;;;;;;;;;363395;148;857256;-66
2022/07/10 02:32:36;;;;;;;3.36;2.30;;;;;;;;;;363424;148;858494;-66
2022/07/10 02:33:37;;;;;;;4.99;2.41;;;;;;;;;;353258;150;858238;-66
2022/07/10 02:34:39;;;;;;;6.16;2.21;;;;;;;;;;351671;150;865946;-65
2022/07/10 02:35:41;;;;;;;5.41;2.54;;;;;;;;;;363320;148;864733;-65
2022/07/10 02:36:42;;;;;;;3.71;2.39;;;;;;;;;;363269;147;864658;-66
2022/07/10 02:37:44;;;;;;;8.21;2.32;;;;;;;;;;363317;148;865771;-66
2022/07/10 02:38:46;;;;;;;4.43;2.48;;;;;;;;;;363337;147;864809;-65
2022/07/10 02:39:48;;;;;;;2.94;2.28;;;;;;;;;;363465;148;865885;-66
2022/07/10 02:40:50;;;;;;;5.46;2.09;;;;;;;;;;363242;148;860702;-66
2022/07/10 02:41:51;;;;;;;6.70;2.45;;;;;;;;;;363414;148;858028;-65
2022/07/10 02:42:53;;;;;;;3.53;1.94;;;;;;;;;;353156;150;866084;-66
2022/07/10 02:43:55;;;;;;;3.65;2.07;;;;;;;;;;353291;148;857316;-66
2022/07/10 02:44:57;;;;;;;3.37;1.86;;;;;;;;;;363342;148;864619;-66
2022/07/10 02:45:58;;;;;;;4.17;1.71;;;;;;;;;;363325;148;857581;-66
2022/07/10 02:47:01;;;;;;;3.71;1.79;;;;;;;;;;363454;148;864561;-66
2022/07/10 02:48:03;;;;;;;2.44;1.69;;;;;;;;;;353878;150;857140;-66
2022/07/10 02:49:05;;;;;;;2.47;1.71;;;;;;;;;;353446;148;857892;-65
2022/07/10 02:50:08;;;;;;;2.95;1.73;;;;;;;;;;363461;148;859417;-64
2022/07/10 02:51:10;;;;;;;4.21;1.69;;;;;;;;;;363360;148;865653;-67
2022/07/10 02:52:11;;;;;;;2.60;1.51;;;;;;;;;;363490;148;865586;-69
2022/07/10 02:53:13;;;;;;;2.30;1.57;;;;;;;;;;363644;148;857390;-70
2022/07/10 02:54:15;;;;;;;2.50;1.69;;;;;;;;;;361952;148;864429;-70
2022/07/10 02:55:17;;;;;;;3.04;1.57;;;;;;;;;;355844;148;868275;-66
2022/07/10 02:56:20;;;;;;;2.83;1.72;;;;;;;;;;363358;148;859670;-65
2022/07/10 02:57:22;;;;;;;3.03;1.47;;;;;;;;;;363343;148;859391;-63
2022/07/10 02:58:23;;;;;;;2.91;1.66;;;;;;;;;;363323;148;864552;-66
2022/07/10 02:59:25;;;;;;;3.86;1.56;;;;;;;;;;363352;148;867132;-66
2022/07/10 03:00:27;;;;;;;4.22;1.57;;;;;;;;;;363252;148;857209;-66
2022/07/10 03:01:29;;;;;;;4.27;1.93;;;;;;;;;;363221;148;857286;-66
2022/07/10 03:02:32;;;;;;;2.45;1.61;;;;;;;;;;363279;148;858229;-66
2022/07/10 03:03:33;;;;;;;3.07;1.79;;;;;;;;;;363366;148;857501;-66
2022/07/10 03:04:35;;;;;;;2.65;1.56;;;;;;;;;;363389;148;858137;-67
2022/07/10 03:05:37;;;;;;;2.18;1.36;;;;;;;;;;361222;148;864718;-66
2022/07/10 03:06:39;;;;;;;2.07;1.50;;;;;;;;;;358773;150;866035;-65
2022/07/10 03:07:41;;;;;;;2.33;1.49;;;;;;;;;;364530;147;858128;-66
2022/07/10 03:08:42;;;;;;;3.14;1.71;;;;;;;;;;364612;147;857049;-66
2022/07/10 03:09:44;;;;;;;3.81;1.81;;;;;;;;;;364536;147;864432;-66
2022/07/10 03:10:46;;;;;;;2.45;1.35;;;;;;;;;;364525;147;864016;-64
2022/07/10 03:11:47;;;;;;;1.89;1.27;;;;;;;;;;364504;147;865706;-65
2022/07/10 03:12:49;;;;;;;2.25;1.49;;;;;;;;;;364553;147;866026;-66
2022/07/10 03:13:51;;;;;;;2.81;1.30;;;;;;;;;;357100;147;864986;-66
2022/07/10 03:14:52;;;;;;;2.32;1.47;;;;;;;;;;356049;150;858196;-64
2022/07/10 03:15:55;;;;;;;2.49;1.46;;;;;;;;;;355878;151;857698;-65
2022/07/10 03:16:57;;;;;;;2.37;1.55;;;;;;;;;;355978;150;866597;-66
2022/07/10 03:17:58;;;;;;;2.79;1.72;;;;;;;;;;355952;150;857396;-65
2022/07/10 03:19:00;;;;;;;2.41;1.44;;;;;;;;;;356070;150;864937;-65
2022/07/10 03:20:02;;;;;;;2.49;1.71;;;;;;;;;;356107;150;857506;-68
2022/07/10 03:21:04;;;;;;;3.41;1.60;;;;;;;;;;356631;147;866609;-71
2022/07/10 03:22:06;;;;;;;3.07;1.58;;;;;;;;;;356125;151;857911;-70
2022/07/10 03:23:08;;;;;;;2.35;1.24;;;;;;;;;;356077;150;857165;-66
2022/07/10 03:24:09;;;;;;;2.93;1.56;;;;;;;;;;355792;151;864406;-64
2022/07/10 03:25:11;;;;;;;3.74;1.58;;;;;;;;;;355869;150;858613;-66
2022/07/10 03:26:14;;;;;;;3.06;1.46;;;;;;;;;;355956;147;859755;-66
2022/07/10 03:27:16;;;;;;;3.01;1.42;;;;;;;;;;355906;151;857360;-66
2022/07/10 03:28:17;;;;;;;3.27;1.49;;;;;;;;;;355803;151;864307;-66
2022/07/10 03:29:19;;;;;;;3.08;1.57;;;;;;;;;;355886;150;866071;-66
2022/07/10 03:30:22;;;;;;;1.79;1.40;;;;;;;;;;355834;150;858769;-66
2022/07/10 03:31:24;;;;;;;2.71;1.39;;;;;;;;;;355858;151;857762;-66
2022/07/10 03:32:26;;;;;;;2.28;1.53;;;;;;;;;;355853;151;859058;-66
2022/07/10 03:33:28;;;;;;;2.90;1.41;;;;;;;;;;361939;147;857809;-66
2022/07/10 03:34:30;;;;;;;2.63;1.43;;;;;;;;;;364427;147;858237;-66
2022/07/10 03:35:32;;;;;;;2.28;1.67;;;;;;;;;;364541;147;857241;-65
2022/07/10 03:36:33;;;;;;;2.15;1.41;;;;;;;;;;364556;147;856745;-65
2022/07/10 03:37:35;;;;;;;2.16;1.40;;;;;;;;;;364598;147;858879;-65
2022/07/10 03:38:37;;;;;;;2.19;1.31;;;;;;;;;;364590;147;858046;-64
2022/07/10 03:39:38;;;;;;;2.89;1.56;;;;;;;;;;364469;147;858213;-65
2022/07/10 03:40:40;;;;;;;3.17;1.52;;;;;;;;;;364601;147;858785;-66
2022/07/10 03:41:42;;;;;;;2.21;1.60;;;;;;;;;;364370;147;864388;-65
2022/07/10 03:42:44;;;;;;;2.31;1.38;;;;;;;;;;364545;147;859767;-65
2022/07/10 03:43:46;;;;;;;3.19;1.44;;;;;;;;;;364428;147;858124;-66
2022/07/10 03:44:47;;;;;;;1.76;1.44;;;;;;;;;;364466;147;864857;-67
2022/07/10 03:45:49;;;;;;;2.63;1.75;;;;;;;;;;364447;147;858024;-66
2022/07/10 03:46:51;;;;;;;2.49;1.59;;;;;;;;;;364577;147;857264;-66
2022/07/10 03:47:53;;;;;;;3.54;1.87;;;;;;;;;;364605;147;867241;-70
2022/07/10 03:48:54;;;;;;;2.69;1.66;;;;;;;;;;364877;147;866465;-70
2022/07/10 03:49:58;;;;;;;2.91;2.07;;;;;;;;;;364599;147;859076;-68
2022/07/10 03:50:59;;;;;;;2.27;1.59;;;;;;;;;;364854;147;857197;-71
2022/07/10 03:52:01;;;;;;;2.87;1.49;;;;;;;;;;360765;147;864996;-66
2022/07/10 03:53:03;;;;;;;2.48;1.61;;;;;;;;;;357400;147;864911;-65
2022/07/10 03:54:05;;;;;;;1.54;1.41;;;;;;;;;;364423;147;858424;-66
2022/07/10 03:55:07;;;;;;;3.47;1.86;;;;;;;;;;357381;147;866065;-65
2022/07/10 03:57:53;;;;;;;1.71;1.43;;;;;;;;;;355778;150;858891;-63
2022/07/10 03:58:33;;;;;;;2.38;1.82;;;;;;;;;;355977;150;864509;-68
2022/07/10 03:59:35;;;;;;;2.32;1.94;;;;;;;;;;355824;150;858700;-69
2022/07/10 04:00:38;;;;;;;2.79;1.80;;;;;;;;;;355710;151;865891;-65
2022/07/10 04:01:40;;;;;;;2.16;1.70;;;;;;;;;;355876;150;858161;-63
2022/07/10 04:02:41;;;;;;;1.53;1.12;;;;;;;;;;355956;150;858892;-65
2022/07/10 04:03:44;;;;;;;3.76;1.69;;;;;;;;;;355914;150;857623;-64
2022/07/10 04:04:48;;;;;;;3.56;1.50;;;;;;;;;;355833;150;865260;-67
2022/07/10 04:05:49;;;;;;;2.91;1.89;;;;;;;;;;355944;150;859052;-66
2022/07/10 04:06:51;;;;;;;3.04;1.54;;;;;;;;;;358160;150;864492;-65
2022/07/10 04:07:53;;;;;;;1.69;1.39;;;;;;;;;;358026;148;864635;-66
2022/07/10 04:08:55;;;;;;;3.61;1.60;;;;;;;;;;358515;147;857766;-65
2022/07/10 04:09:56;;;;;;;2.36;1.49;;;;;;;;;;358100;148;858644;-66
2022/07/10 04:10:58;;;;;;;2.32;1.47;;;;;;;;;;358095;150;864853;-64
2022/07/10 04:12:00;;;;;;;2.29;1.62;;;;;;;;;;358101;149;858787;-66
2022/07/10 04:13:02;;;;;;;3.31;1.47;;;;;;;;;;358003;150;864882;-64
2022/07/10 04:14:04;;;;;;;3.05;1.64;;;;;;;;;;363599;147;859034;-64
2022/07/10 04:15:06;;;;;;;3.16;1.81;;;;;;;;;;366095;147;858680;-65
2022/07/10 04:16:12;;;;;;;2.55;1.69;;;;;;;;;;365942;146;864710;-66
2022/07/10 04:17:13;;;;;;;2.52;1.62;;;;;;;;;;365798;145;864651;-65
2022/07/10 04:18:14;;;;;;;4.43;1.93;;;;;;;;;;366101;147;867041;-66
2022/07/10 04:19:16;;;;;;;3.56;2.05;;;;;;;;;;366126;147;864882;-65
2022/07/10 04:20:20;;;;;;;3.00;1.80;;;;;;;;;;366077;146;859034;-66
2022/07/10 04:21:22;;;;;;;3.57;1.91;;;;;;;;;;366121;146;857259;-65
2022/07/10 04:22:23;;;;;;;3.03;1.51;;;;;;;;;;366148;147;857379;-66
2022/07/10 04:23:25;;;;;;;3.89;1.78;;;;;;;;;;364116;146;864640;-65
2022/07/10 04:24:27;;;;;;;2.60;1.72;;;;;;;;;;358021;149;858510;-66
2022/07/10 04:25:29;;;;;;;2.88;1.83;;;;;;;;;;358095;148;864591;-65
2022/07/10 04:26:31;;;;;;;4.39;1.75;;;;;;;;;;358042;148;864745;-66
2022/07/10 04:27:34;;;;;;;2.86;1.57;;;;;;;;;;358086;148;857816;-66
2022/07/10 04:28:37;;;;;;;2.75;1.63;;;;;;;;;;357930;149;865012;-66
2022/07/10 04:29:38;;;;;;;2.52;1.59;;;;;;;;;;358057;150;857949;-71
2022/07/10 04:30:40;;;;;;;2.45;1.62;;;;;;;;;;358340;150;866365;-71
2022/07/10 04:31:42;;;;;;;2.44;1.67;;;;;;;;;;358219;150;865562;-69
2022/07/10 04:32:43;;;;;;;2.63;1.63;;;;;;;;;;358688;147;857845;-66
2022/07/10 04:33:45;;;;;;;3.44;1.53;;;;;;;;;;349082;154;864871;-66
2022/07/10 04:34:47;;;;;;;3.05;1.66;;;;;;;;;;340270;155;866038;-67
2022/07/10 04:35:48;;;;;;;3.24;1.68;;;;;;;;;;350442;150;857357;-66
2022/07/10 04:36:50;;;;;;;2.73;1.81;;;;;;;;;;358052;148;860930;-66
2022/07/10 04:37:53;;;;;;;3.46;1.86;;;;;;;;;;357998;150;857756;-66
2022/07/10 04:38:55;;;;;;;7.49;2.15;;;;;;;;;;358527;149;865010;-66
2022/07/10 04:39:56;;;;;;;3.86;1.87;;;;;;;;;;355546;151;857324;-66
2022/07/10 04:40:58;;;;;;;3.58;1.69;;;;;;;;;;354974;150;858920;-66
2022/07/10 04:42:00;;;;;;;3.53;1.64;;;;;;;;;;355681;151;864469;-69
2022/07/10 04:43:02;;;;;;;5.24;1.99;;;;;;;;;;358537;149;863754;-67
2022/07/10 04:44:05;;;;;;;3.64;1.76;;;;;;;;;;358017;148;857117;-68
2022/07/10 04:45:08;;;;;;;4.33;1.76;;;;;;;;;;358074;148;864453;-69
2022/07/10 04:46:10;;;;;;;3.27;1.83;;;;;;;;;;358086;149;864823;-68
2022/07/10 04:47:12;;;;;;;3.78;1.66;;;;;;;;;;358355;148;857042;-68
2022/07/10 04:48:14;;;;;;;2.91;1.70;;;;;;;;;;358315;148;864770;-68
2022/07/10 04:49:15;;;;;;;3.97;1.79;;;;;;;;;;366153;144;857594;-69
2022/07/10 04:50:18;;;;;;;2.11;1.71;;;;;;;;;;360814;147;865437;-68
2022/07/10 04:51:20;;;;;;;1.87;1.52;;;;;;;;;;363035;147;864816;-67
2022/07/10 04:52:21;;;;;;;3.91;1.80;;;;;;;;;;362105;147;864846;-67
2022/07/10 04:53:23;;;;;;;3.91;1.91;;;;;;;;;;364779;144;867341;-68
2022/07/10 04:54:25;;;;;;;2.89;1.78;;;;;;;;;;368258;144;864470;-68
2022/07/10 04:55:27;;;;;;;3.45;1.76;;;;;;;;;;369319;144;864317;-69
2022/07/10 04:56:29;;;;;;;4.59;1.66;;;;;;;;;;359927;149;858865;-68
2022/07/10 04:57:30;;;;;;;2.65;1.71;;;;;;;;;;359964;149;859115;-70
2022/07/10 04:58:32;;;;;;;2.45;1.89;;;;;;;;;;366194;147;857238;-72
2022/07/10 04:59:33;;;;;;;4.46;1.75;;;;;;;;;;366149;147;858537;-71
2022/07/10 05:00:37;;;;;;;3.67;1.95;;;;;;;;;;366219;147;865206;-67
2022/07/10 05:01:39;;;;;;;3.93;1.44;;;;;;;;;;365441;144;858590;-68
2022/07/10 05:02:41;;;;;;;3.07;1.72;;;;;;;;;;366624;144;864661;-69
2022/07/10 05:03:43;;;;;;;3.07;1.59;;;;;;;;;;363799;147;865276;-68
2022/07/10 05:04:45;;;;;;;2.78;1.92;;;;;;;;;;365914;147;857254;-67
2022/07/10 05:05:47;;;;;;;3.59;1.72;;;;;;;;;;366549;144;858078;-69
2022/07/10 05:06:49;;;;;;;2.78;1.60;;;;;;;;;;359303;147;863838;-69
2022/07/10 05:07:50;;;;;;;1.89;1.63;;;;;;;;;;364936;145;856881;-68
2022/07/10 05:08:53;;;;;;;2.91;1.72;;;;;;;;;;364006;145;865971;-67
2022/07/10 05:09:55;;;;;;;5.05;2.23;;;;;;;;;;363510;145;864538;-67
2022/07/10 05:10:57;;;;;;;2.51;1.90;;;;;;;;;;364973;145;864796;-68
2022/07/10 05:11:59;;;;;;;2.72;1.85;;;;;;;;;;366506;145;864029;-67
2022/07/10 05:13:01;;;;;;;3.15;2.11;;;;;;;;;;360139;147;858768;-65
2022/07/10 05:14:02;;;;;;;3.42;1.90;;;;;;;;;;367728;145;857271;-69
2022/07/10 05:15:05;;;;;;;3.86;1.76;;;;;;;;;;364915;145;856736;-68
2022/07/10 05:16:07;;;;;;;3.66;1.79;;;;;;;;;;364476;145;864711;-68
2022/07/10 05:17:09;;;;;;;3.26;2.16;;;;;;;;;;366078;145;857262;-68
2022/07/10 05:18:10;;;;;;;3.26;1.89;;;;;;;;;;363353;145;865826;-69
2022/07/10 05:19:12;;;;;;;2.26;1.86;;;;;;;;;;360401;147;864219;-69
2022/07/10 05:20:15;;;;;;;4.50;1.86;;;;;;;;;;362587;147;864507;-69
2022/07/10 05:21:16;;;;;;;3.73;1.91;;;;;;;;;;361497;147;857458;-70
2022/07/10 05:22:18;;;;;;;2.84;1.89;;;;;;;;;;363052;147;859028;-68
2022/07/10 05:23:20;;;;;;;4.92;1.74;;;;;;;;;;365200;145;864637;-69
2022/07/10 05:24:22;;;;;;;5.41;2.17;;;;;;;;;;362147;147;861409;-67
2022/07/10 05:25:26;;;;;;;2.39;1.81;;;;;;;;;;363158;147;858593;-73
2022/07/10 05:26:29;;;;;;;3.10;1.93;;;;;;;;;;362454;147;865125;-71
2022/07/10 05:27:31;;;;;;;2.48;1.89;;;;;;;;;;362584;147;858616;-72
2022/07/10 05:28:32;;;;;;;3.58;2.14;;;;;;;;;;362406;148;864548;-73
2022/07/10 05:29:34;;;;;;;3.28;2.14;;;;;;;;;;365386;145;865592;-68
2022/07/10 05:30:36;;;;;;;2.74;2.09;;;;;;;;;;364441;145;857077;-68
2022/07/10 05:31:37;;;;;;;3.90;2.04;;;;;;;;;;360784;147;865414;-69
2022/07/10 05:32:43;;;;;;;3.56;2.57;;;;;;;;;;363776;145;865718;-69
2022/07/10 05:33:46;;;;;;;4.12;2.06;;;;;;;;;;366151;145;858662;-69
2022/07/10 05:34:48;;;;;;;3.62;2.11;;;;;;;;;;364806;145;857987;-68
2022/07/10 05:35:50;;;;;;;3.61;1.99;;;;;;;;;;366192;145;858193;-69
2022/07/10 05:36:52;;;;;;;3.76;2.36;;;;;;;;;;364699;145;858273;-69
2022/07/10 05:37:54;;;;;;;4.37;2.33;;;;;;;;;;365832;145;864627;-68
2022/07/10 05:38:56;;;;;;;4.27;2.16;;;;;;;;;;366463;145;867112;-69
2022/07/10 05:39:58;;;;;;;4.51;2.19;;;;;;;;;;363207;147;864780;-69
2022/07/10 05:41:00;;;;;;;5.53;2.18;;;;;;;;;;364831;145;857210;-70
2022/07/10 05:42:02;;;;;;;4.32;2.18;;;;;;;;;;363584;145;864727;-68
2022/07/10 05:43:04;;;;;;;3.24;2.16;;;;;;;;;;364675;145;860069;-68
2022/07/10 05:44:06;;;;;;;4.09;1.85;;;;;;;;;;363520;147;866078;-71
2022/07/10 05:45:08;;;;;;;3.66;2.18;;;;;;;;;;359820;147;856856;-67
2022/07/10 05:46:10;;;;;;;3.23;1.96;;;;;;;;;;364451;147;857583;-69
2022/07/10 05:47:12;;;;;;;3.95;2.17;;;;;;;;;;365579;145;866269;-70
2022/07/10 05:48:22;;;;;;;4.44;2.35;;;;;;;;;;362233;145;857004;-69
2022/07/10 05:49:24;;;;;;;4.74;2.27;;;;;;;;;;366223;145;857546;-70
2022/07/10 05:50:26;;;;;;;2.93;2.15;;;;;;;;;;360193;148;856839;-70
2022/07/10 05:51:29;;;;;;;2.49;1.78;;;;;;;;;;364109;147;857470;-69
2022/07/10 05:52:30;;;;;;;2.65;1.90;;;;;;;;;;359596;148;857667;-67
2022/07/10 05:53:32;;;;;;;3.58;2.02;;;;;;;;;;364153;145;865830;-69
2022/07/10 05:54:34;;;;;;;3.90;2.24;;;;;;;;;;368352;145;857454;-68
2022/07/10 05:55:36;;;;;;;2.13;1.73;;;;;;;;;;364386;145;866613;-68
2022/07/10 05:56:38;;;;;;;3.31;1.95;;;;;;;;;;360174;149;858057;-70
2022/07/10 05:57:40;;;;;;;4.09;2.06;;;;;;;;;;362116;145;857610;-67
2022/07/10 05:58:41;;;;;;;3.65;1.86;;;;;;;;;;367585;145;857235;-68
2022/07/10 05:59:43;;;;;;;4.45;2.30;;;;;;;;;;363786;145;858863;-70
2022/07/10 06:00:45;;;;;;;5.39;2.06;;;;;;;;;;364647;145;864938;-72
2022/07/10 06:01:48;;;;;;;4.09;1.97;;;;;;;;;;360658;147;859027;-73
2022/07/10 06:02:51;;;;;;;4.14;2.13;;;;;;;;;;363184;147;857698;-72
2022/07/10 06:03:52;;;;;;;5.11;2.31;;;;;;;;;;361518;149;858630;-73
2022/07/10 06:04:54;;;;;;;3.70;1.93;;;;;;;;;;366480;145;857148;-69
2022/07/10 06:05:59;;;;;;;3.03;1.76;;;;;;;;;;363735;145;865395;-70
2022/07/10 06:07:02;;;;;;;4.08;1.98;;;;;;;;;;363159;147;864827;-69
2022/07/10 06:08:04;;;;;;;2.90;1.92;;;;;;;;;;359696;149;856988;-68
2022/07/10 06:09:05;;;;;;;3.13;2.02;;;;;;;;;;359366;148;857381;-69
2022/07/10 06:10:09;;;;;;;3.11;1.79;;;;;;;;;;359621;149;857988;-67
2022/07/10 06:11:11;;;;;;;3.24;1.82;;;;;;;;;;354966;149;864661;-69
2022/07/10 06:12:12;;;;;;;3.47;2.10;;;;;;;;;;354487;150;859363;-70